sensor_id;sensor_type;location;lat;lon;timestamp;temperature;humidity
13268;DHT22;6702;47.068;15.458;2023-02-01T00:01:08;3.00;78.90
13268;DHT22;6702;47.068;15.458;2023-02-01T00:04:12;3.00;79.30
13268;DHT22;6702;47.068;15.458;2023-02-01T00:07:15;2.90;79.40
13268;DHT22;6702;47.068;15.458;2023-02-01T00:10:18;2.90;79.80
13268;DHT22;6702;47.068;15.458;2023-02-01T00:13:22;2.80;81.20
13268;DHT22;6702;47.068;15.458;2023-02-01T00:16:29;2.80;81.60
13268;DHT22;6702;47.068;15.458;2023-02-01T00:19:32;2.80;81.20
13268;DHT22;6702;47.068;15.458;2023-02-01T00:22:36;2.80;81.60
13268;DHT22;6702;47.068;15.458;2023-02-01T00:25:39;2.80;81.80
13268;DHT22;6702;47.068;15.458;2023-02-01T00:28:42;2.80;82.20
13268;DHT22;6702;47.068;15.458;2023-02-01T00:31:49;2.80;82.20
13268;DHT22;6702;47.068;15.458;2023-02-01T00:34:53;2.80;82.90
13268;DHT22;6702;47.068;15.458;2023-02-01T00:37:56;2.80;83.10
13268;DHT22;6702;47.068;15.458;2023-02-01T00:41:04;2.70;83.80
13268;DHT22;6702;47.068;15.458;2023-02-01T00:44:08;2.70;84.10
13268;DHT22;6702;47.068;15.458;2023-02-01T00:47:12;2.70;84.50
13268;DHT22;6702;47.068;15.458;2023-02-01T00:50:16;2.70;84.40
13268;DHT22;6702;47.068;15.458;2023-02-01T00:53:19;2.60;85.20
13268;DHT22;6702;47.068;15.458;2023-02-01T00:56:22;2.50;85.70
13268;DHT22;6702;47.068;15.458;2023-02-01T00:59:25;2.60;86.30
13268;DHT22;6702;47.068;15.458;2023-02-01T01:02:30;2.60;85.90
13268;DHT22;6702;47.068;15.458;2023-02-01T01:05:33;2.60;86.20
13268;DHT22;6702;47.068;15.458;2023-02-01T01:08:37;2.60;86.20
13268;DHT22;6702;47.068;15.458;2023-02-01T01:11:40;2.70;86.10
13268;DHT22;6702;47.068;15.458;2023-02-01T01:14:43;2.70;85.90
13268;DHT22;6702;47.068;15.458;2023-02-01T01:17:48;2.70;86.10
13268;DHT22;6702;47.068;15.458;2023-02-01T01:20:51;2.80;85.80
13268;DHT22;6702;47.068;15.458;2023-02-01T01:23:55;2.70;85.20
13268;DHT22;6702;47.068;15.458;2023-02-01T01:26:58;2.70;85.80
13268;DHT22;6702;47.068;15.458;2023-02-01T01:30:01;2.70;85.90
13268;DHT22;6702;47.068;15.458;2023-02-01T01:33:06;2.70;85.80
13268;DHT22;6702;47.068;15.458;2023-02-01T01:36:10;2.80;86.20
13268;DHT22;6702;47.068;15.458;2023-02-01T01:39:13;2.80;86.20
13268;DHT22;6702;47.068;15.458;2023-02-01T01:42:16;2.80;86.70
13268;DHT22;6702;47.068;15.458;2023-02-01T01:45:23;2.80;87.00
13268;DHT22;6702;47.068;15.458;2023-02-01T01:48:30;2.70;87.00
13268;DHT22;6702;47.068;15.458;2023-02-01T01:51:36;2.70;87.30
13268;DHT22;6702;47.068;15.458;2023-02-01T01:54:43;2.60;87.60
13268;DHT22;6702;47.068;15.458;2023-02-01T01:57:53;2.70;88.20
13268;DHT22;6702;47.068;15.458;2023-02-01T02:00:58;2.70;88.20
13268;DHT22;6702;47.068;15.458;2023-02-01T02:04:03;2.60;88.20
13268;DHT22;6702;47.068;15.458;2023-02-01T02:07:10;2.50;88.60
13268;DHT22;6702;47.068;15.458;2023-02-01T02:10:15;2.60;88.80
13268;DHT22;6702;47.068;15.458;2023-02-01T02:13:19;2.50;89.40
13268;DHT22;6702;47.068;15.458;2023-02-01T02:16:33;2.40;90.00
13268;DHT22;6702;47.068;15.458;2023-02-01T02:23:57;2.40;90.40
13268;DHT22;6702;47.068;15.458;2023-02-01T02:27:12;2.30;90.50
13268;DHT22;6702;47.068;15.458;2023-02-01T02:30:51;2.30;90.70
13268;DHT22;6702;47.068;15.458;2023-02-01T02:34:06;2.30;90.90
13268;DHT22;6702;47.068;15.458;2023-02-01T02:37:20;2.30;91.20
13268;DHT22;6702;47.068;15.458;2023-02-01T02:40:31;2.30;91.20
13268;DHT22;6702;47.068;15.458;2023-02-01T02:43:43;2.20;91.10
13268;DHT22;6702;47.068;15.458;2023-02-01T02:47:11;2.20;91.30
13268;DHT22;6702;47.068;15.458;2023-02-01T02:50:34;2.20;91.30
13268;DHT22;6702;47.068;15.458;2023-02-01T02:54:09;2.20;91.30
13268;DHT22;6702;47.068;15.458;2023-02-01T02:57:33;2.30;91.50
13268;DHT22;6702;47.068;15.458;2023-02-01T03:00:55;2.20;91.40
13268;DHT22;6702;47.068;15.458;2023-02-01T03:04:16;2.20;91.70
13268;DHT22;6702;47.068;15.458;2023-02-01T03:07:52;2.20;91.70
13268;DHT22;6702;47.068;15.458;2023-02-01T03:10:58;2.20;91.80
13268;DHT22;6702;47.068;15.458;2023-02-01T03:14:03;1.90;92.20
13268;DHT22;6702;47.068;15.458;2023-02-01T03:17:12;1.80;93.10
13268;DHT22;6702;47.068;15.458;2023-02-01T03:20:17;1.80;93.10
13268;DHT22;6702;47.068;15.458;2023-02-01T03:23:28;1.90;92.90
13268;DHT22;6702;47.068;15.458;2023-02-01T03:26:36;2.00;92.60
13268;DHT22;6702;47.068;15.458;2023-02-01T03:29:46;2.10;92.50
13268;DHT22;6702;47.068;15.458;2023-02-01T03:32:53;2.10;92.20
13268;DHT22;6702;47.068;15.458;2023-02-01T03:36:09;2.10;92.40
13268;DHT22;6702;47.068;15.458;2023-02-01T03:39:21;2.20;92.20
13268;DHT22;6702;47.068;15.458;2023-02-01T03:42:30;2.20;92.20
13268;DHT22;6702;47.068;15.458;2023-02-01T03:45:38;2.20;92.20
13268;DHT22;6702;47.068;15.458;2023-02-01T03:48:44;2.20;92.20
13268;DHT22;6702;47.068;15.458;2023-02-01T03:51:49;2.20;92.30
13268;DHT22;6702;47.068;15.458;2023-02-01T03:54:55;2.20;92.30
13268;DHT22;6702;47.068;15.458;2023-02-01T03:58:04;2.20;92.40
13268;DHT22;6702;47.068;15.458;2023-02-01T04:01:09;2.10;92.40
13268;DHT22;6702;47.068;15.458;2023-02-01T04:04:12;2.10;92.60
13268;DHT22;6702;47.068;15.458;2023-02-01T04:07:21;2.10;92.60
13268;DHT22;6702;47.068;15.458;2023-02-01T04:10:26;2.10;92.50
13268;DHT22;6702;47.068;15.458;2023-02-01T04:13:29;2.10;92.60
13268;DHT22;6702;47.068;15.458;2023-02-01T04:16:33;2.20;92.60
13268;DHT22;6702;47.068;15.458;2023-02-01T04:19:36;2.20;92.80
13268;DHT22;6702;47.068;15.458;2023-02-01T04:22:39;1.90;93.00
13268;DHT22;6702;47.068;15.458;2023-02-01T04:25:44;1.90;93.30
13268;DHT22;6702;47.068;15.458;2023-02-01T04:28:47;1.90;93.40
13268;DHT22;6702;47.068;15.458;2023-02-01T04:31:50;2.00;93.50
13268;DHT22;6702;47.068;15.458;2023-02-01T04:34:54;2.00;93.50
13268;DHT22;6702;47.068;15.458;2023-02-01T04:37:57;1.90;93.50
13268;DHT22;6702;47.068;15.458;2023-02-01T04:41:01;1.90;93.50
13268;DHT22;6702;47.068;15.458;2023-02-01T04:44:05;1.90;93.60
13268;DHT22;6702;47.068;15.458;2023-02-01T04:47:08;1.90;93.70
13268;DHT22;6702;47.068;15.458;2023-02-01T04:50:11;2.00;93.90
13268;DHT22;6702;47.068;15.458;2023-02-01T04:53:14;1.90;94.00
13268;DHT22;6702;47.068;15.458;2023-02-01T04:56:19;2.00;94.10
13268;DHT22;6702;47.068;15.458;2023-02-01T04:59:22;2.00;94.20
13268;DHT22;6702;47.068;15.458;2023-02-01T05:02:25;2.00;94.20
13268;DHT22;6702;47.068;15.458;2023-02-01T05:05:29;2.00;94.00
13268;DHT22;6702;47.068;15.458;2023-02-01T05:08:32;2.10;94.10
13268;DHT22;6702;47.068;15.458;2023-02-01T05:11:40;2.10;94.00
13268;DHT22;6702;47.068;15.458;2023-02-01T05:15:01;2.10;94.10
13268;DHT22;6702;47.068;15.458;2023-02-01T05:18:05;2.10;94.20
13268;DHT22;6702;47.068;15.458;2023-02-01T05:21:08;2.10;94.20
13268;DHT22;6702;47.068;15.458;2023-02-01T05:24:11;2.00;94.10
13268;DHT22;6702;47.068;15.458;2023-02-01T05:27:19;2.00;94.20
13268;DHT22;6702;47.068;15.458;2023-02-01T05:30:22;1.90;94.40
13268;DHT22;6702;47.068;15.458;2023-02-01T05:33:26;1.90;94.90
13268;DHT22;6702;47.068;15.458;2023-02-01T05:36:29;1.90;94.70
13268;DHT22;6702;47.068;15.458;2023-02-01T05:39:32;1.90;95.00
13268;DHT22;6702;47.068;15.458;2023-02-01T05:42:37;1.90;94.80
13268;DHT22;6702;47.068;15.458;2023-02-01T05:45:40;2.00;95.00
13268;DHT22;6702;47.068;15.458;2023-02-01T05:48:43;1.90;94.90
13268;DHT22;6702;47.068;15.458;2023-02-01T05:51:47;1.90;94.80
13268;DHT22;6702;47.068;15.458;2023-02-01T05:54:50;1.90;95.00
13268;DHT22;6702;47.068;15.458;2023-02-01T05:57:55;1.90;94.80
13268;DHT22;6702;47.068;15.458;2023-02-01T06:00:59;1.90;94.90
13268;DHT22;6702;47.068;15.458;2023-02-01T06:04:02;1.80;95.00
13268;DHT22;6702;47.068;15.458;2023-02-01T06:07:06;1.80;95.10
13268;DHT22;6702;47.068;15.458;2023-02-01T06:10:10;1.90;95.10
13268;DHT22;6702;47.068;15.458;2023-02-01T06:13:15;1.80;95.00
13268;DHT22;6702;47.068;15.458;2023-02-01T06:16:18;1.80;95.10
13268;DHT22;6702;47.068;15.458;2023-02-01T06:19:22;1.80;95.30
13268;DHT22;6702;47.068;15.458;2023-02-01T06:22:25;1.80;95.70
13268;DHT22;6702;47.068;15.458;2023-02-01T06:25:28;1.80;95.40
13268;DHT22;6702;47.068;15.458;2023-02-01T06:28:33;1.80;95.30
13268;DHT22;6702;47.068;15.458;2023-02-01T06:31:36;1.90;95.40
13268;DHT22;6702;47.068;15.458;2023-02-01T06:34:40;1.90;95.30
13268;DHT22;6702;47.068;15.458;2023-02-01T06:37:43;1.90;95.40
13268;DHT22;6702;47.068;15.458;2023-02-01T06:40:52;1.90;95.50
13268;DHT22;6702;47.068;15.458;2023-02-01T06:43:56;1.80;95.50
13268;DHT22;6702;47.068;15.458;2023-02-01T06:47:00;2.00;95.60
13268;DHT22;6702;47.068;15.458;2023-02-01T06:50:03;2.00;95.50
13268;DHT22;6702;47.068;15.458;2023-02-01T06:53:07;2.00;95.60
13268;DHT22;6702;47.068;15.458;2023-02-01T06:56:10;2.00;95.60
13268;DHT22;6702;47.068;15.458;2023-02-01T06:59:14;2.10;95.40
13268;DHT22;6702;47.068;15.458;2023-02-01T07:02:18;2.10;95.50
13268;DHT22;6702;47.068;15.458;2023-02-01T07:05:21;2.20;95.50
13268;DHT22;6702;47.068;15.458;2023-02-01T07:08:25;2.30;95.40
13268;DHT22;6702;47.068;15.458;2023-02-01T07:11:29;2.40;95.30
13268;DHT22;6702;47.068;15.458;2023-02-01T07:14:35;2.50;95.20
13268;DHT22;6702;47.068;15.458;2023-02-01T07:17:38;2.50;95.00
13268;DHT22;6702;47.068;15.458;2023-02-01T07:20:41;2.60;94.90
13268;DHT22;6702;47.068;15.458;2023-02-01T07:23:45;2.70;94.80
13268;DHT22;6702;47.068;15.458;2023-02-01T07:26:48;2.70;94.70
13268;DHT22;6702;47.068;15.458;2023-02-01T07:29:54;2.60;94.70
13268;DHT22;6702;47.068;15.458;2023-02-01T07:32:58;2.70;94.90
13268;DHT22;6702;47.068;15.458;2023-02-01T07:36:04;2.70;94.80
13268;DHT22;6702;47.068;15.458;2023-02-01T07:39:08;2.80;94.70
13268;DHT22;6702;47.068;15.458;2023-02-01T07:42:11;2.90;94.60
13268;DHT22;6702;47.068;15.458;2023-02-01T07:45:16;3.00;94.50
13268;DHT22;6702;47.068;15.458;2023-02-01T07:48:23;3.10;94.50
13268;DHT22;6702;47.068;15.458;2023-02-01T07:51:26;3.30;94.50
13268;DHT22;6702;47.068;15.458;2023-02-01T07:54:30;3.50;94.20
13268;DHT22;6702;47.068;15.458;2023-02-01T07:57:33;3.70;94.00
13268;DHT22;6702;47.068;15.458;2023-02-01T08:00:37;3.90;93.50
13268;DHT22;6702;47.068;15.458;2023-02-01T08:04:00;4.10;93.40
13268;DHT22;6702;47.068;15.458;2023-02-01T08:07:04;4.50;93.00
13268;DHT22;6702;47.068;15.458;2023-02-01T08:10:07;4.70;92.30
13268;DHT22;6702;47.068;15.458;2023-02-01T08:13:13;4.90;92.00
13268;DHT22;6702;47.068;15.458;2023-02-01T08:16:19;5.00;91.60
13268;DHT22;6702;47.068;15.458;2023-02-01T08:19:22;5.10;91.10
13268;DHT22;6702;47.068;15.458;2023-02-01T08:22:26;5.30;90.60
13268;DHT22;6702;47.068;15.458;2023-02-01T08:25:29;5.40;90.50
13268;DHT22;6702;47.068;15.458;2023-02-01T08:28:33;5.40;90.00
13268;DHT22;6702;47.068;15.458;2023-02-01T08:31:40;5.50;90.00
13268;DHT22;6702;47.068;15.458;2023-02-01T08:34:43;5.50;89.80
13268;DHT22;6702;47.068;15.458;2023-02-01T08:37:46;5.70;89.50
13268;DHT22;6702;47.068;15.458;2023-02-01T08:40:50;5.80;88.90
13268;DHT22;6702;47.068;15.458;2023-02-01T08:43:53;6.00;88.80
13268;DHT22;6702;47.068;15.458;2023-02-01T08:46:58;6.10;87.50
13268;DHT22;6702;47.068;15.458;2023-02-01T08:50:01;6.20;86.90
13268;DHT22;6702;47.068;15.458;2023-02-01T08:53:05;6.30;86.20
13268;DHT22;6702;47.068;15.458;2023-02-01T08:56:08;6.40;85.80
13268;DHT22;6702;47.068;15.458;2023-02-01T08:59:12;6.40;85.60
13268;DHT22;6702;47.068;15.458;2023-02-01T09:02:17;6.50;85.50
13268;DHT22;6702;47.068;15.458;2023-02-01T09:05:20;6.70;84.50
13268;DHT22;6702;47.068;15.458;2023-02-01T09:08:24;7.00;83.40
13268;DHT22;6702;47.068;15.458;2023-02-01T09:11:28;7.20;82.70
13268;DHT22;6702;47.068;15.458;2023-02-01T09:14:31;7.40;81.10
13268;DHT22;6702;47.068;15.458;2023-02-01T09:17:36;7.50;78.80
13268;DHT22;6702;47.068;15.458;2023-02-01T09:20:40;7.50;78.30
13268;DHT22;6702;47.068;15.458;2023-02-01T09:23:43;7.60;77.80
13268;DHT22;6702;47.068;15.458;2023-02-01T09:26:47;7.60;77.00
13268;DHT22;6702;47.068;15.458;2023-02-01T09:29:50;7.50;76.90
13268;DHT22;6702;47.068;15.458;2023-02-01T09:32:55;7.40;76.50
13268;DHT22;6702;47.068;15.458;2023-02-01T09:35:59;7.30;77.10
13268;DHT22;6702;47.068;15.458;2023-02-01T09:39:03;7.20;77.10
13268;DHT22;6702;47.068;15.458;2023-02-01T09:42:16;7.20;77.30
13268;DHT22;6702;47.068;15.458;2023-02-01T09:45:26;7.20;77.70
13268;DHT22;6702;47.068;15.458;2023-02-01T09:48:37;7.30;78.00
13268;DHT22;6702;47.068;15.458;2023-02-01T09:51:44;7.30;78.20
13268;DHT22;6702;47.068;15.458;2023-02-01T09:54:52;7.40;77.40
13268;DHT22;6702;47.068;15.458;2023-02-01T09:58:02;7.60;77.50
13268;DHT22;6702;47.068;15.458;2023-02-01T10:01:14;8.10;77.40
13268;DHT22;6702;47.068;15.458;2023-02-01T10:04:20;9.90;75.50
13268;DHT22;6702;47.068;15.458;2023-02-01T10:07:31;14.00;66.60
13268;DHT22;6702;47.068;15.458;2023-02-01T10:10:41;18.60;47.70
13268;DHT22;6702;47.068;15.458;2023-02-01T10:13:54;22.10;37.20
13268;DHT22;6702;47.068;15.458;2023-02-01T10:17:12;26.00;29.10
13268;DHT22;6702;47.068;15.458;2023-02-01T10:20:26;26.90;25.20
13268;DHT22;6702;47.068;15.458;2023-02-01T10:23:48;29.20;22.90
13268;DHT22;6702;47.068;15.458;2023-02-01T10:27:01;31.40;21.10
13268;DHT22;6702;47.068;15.458;2023-02-01T10:30:16;33.80;18.90
13268;DHT22;6702;47.068;15.458;2023-02-01T10:33:24;34.50;16.30
13268;DHT22;6702;47.068;15.458;2023-02-01T10:36:32;31.60;17.90
13268;DHT22;6702;47.068;15.458;2023-02-01T10:39:38;33.50;17.00
13268;DHT22;6702;47.068;15.458;2023-02-01T10:42:42;34.60;15.40
13268;DHT22;6702;47.068;15.458;2023-02-01T10:45:46;35.70;14.90
13268;DHT22;6702;47.068;15.458;2023-02-01T10:48:49;37.30;13.80
13268;DHT22;6702;47.068;15.458;2023-02-01T10:51:59;38.40;13.10
13268;DHT22;6702;47.068;15.458;2023-02-01T10:55:37;37.60;12.40
13268;DHT22;6702;47.068;15.458;2023-02-01T10:58:46;36.40;12.90
13268;DHT22;6702;47.068;15.458;2023-02-01T11:01:51;36.70;12.90
13268;DHT22;6702;47.068;15.458;2023-02-01T11:05:02;37.00;12.50
13268;DHT22;6702;47.068;15.458;2023-02-01T11:08:14;37.60;12.70
13268;DHT22;6702;47.068;15.458;2023-02-01T11:11:20;38.00;11.80
13268;DHT22;6702;47.068;15.458;2023-02-01T11:14:35;38.50;11.70
13268;DHT22;6702;47.068;15.458;2023-02-01T11:17:42;38.60;11.70
13268;DHT22;6702;47.068;15.458;2023-02-01T11:20:47;38.70;11.50
13268;DHT22;6702;47.068;15.458;2023-02-01T11:23:55;37.30;12.10
13268;DHT22;6702;47.068;15.458;2023-02-01T11:27:05;36.20;12.10
13268;DHT22;6702;47.068;15.458;2023-02-01T11:30:15;35.80;12.70
13268;DHT22;6702;47.068;15.458;2023-02-01T11:33:22;35.30;13.30
13268;DHT22;6702;47.068;15.458;2023-02-01T11:36:32;35.40;13.20
13268;DHT22;6702;47.068;15.458;2023-02-01T11:39:37;37.10;12.50
13268;DHT22;6702;47.068;15.458;2023-02-01T11:42:53;38.80;11.40
13268;DHT22;6702;47.068;15.458;2023-02-01T11:45:59;38.20;11.20
13268;DHT22;6702;47.068;15.458;2023-02-01T11:49:18;36.70;12.10
13268;DHT22;6702;47.068;15.458;2023-02-01T11:52:45;37.00;12.00
13268;DHT22;6702;47.068;15.458;2023-02-01T11:56:05;38.00;11.60
13268;DHT22;6702;47.068;15.458;2023-02-01T11:59:19;38.00;12.00
13268;DHT22;6702;47.068;15.458;2023-02-01T12:02:51;38.00;10.70
13268;DHT22;6702;47.068;15.458;2023-02-01T12:05:59;38.40;10.20
13268;DHT22;6702;47.068;15.458;2023-02-01T12:09:20;36.30;10.10
13268;DHT22;6702;47.068;15.458;2023-02-01T12:12:31;35.50;9.70
13268;DHT22;6702;47.068;15.458;2023-02-01T12:15:55;33.60;10.60
13268;DHT22;6702;47.068;15.458;2023-02-01T12:19:18;31.90;11.30
13268;DHT22;6702;47.068;15.458;2023-02-01T12:22:34;32.00;11.10
13268;DHT22;6702;47.068;15.458;2023-02-01T12:25:53;31.00;11.70
13268;DHT22;6702;47.068;15.458;2023-02-01T12:29:24;30.40;11.40
13268;DHT22;6702;47.068;15.458;2023-02-01T12:32:42;28.00;12.40
13268;DHT22;6702;47.068;15.458;2023-02-01T12:36:06;26.00;13.40
13268;DHT22;6702;47.068;15.458;2023-02-01T12:39:22;26.00;14.00
13268;DHT22;6702;47.068;15.458;2023-02-01T12:42:30;26.40;14.00
13268;DHT22;6702;47.068;15.458;2023-02-01T12:45:40;27.40;13.00
13268;DHT22;6702;47.068;15.458;2023-02-01T12:48:54;26.50;13.00
13268;DHT22;6702;47.068;15.458;2023-02-01T12:52:01;25.30;14.10
13268;DHT22;6702;47.068;15.458;2023-02-01T12:55:14;25.30;14.30
13268;DHT22;6702;47.068;15.458;2023-02-01T12:58:22;25.00;14.20
13268;DHT22;6702;47.068;15.458;2023-02-01T13:01:30;23.80;14.80
13268;DHT22;6702;47.068;15.458;2023-02-01T13:04:40;22.70;15.80
13268;DHT22;6702;47.068;15.458;2023-02-01T13:07:50;22.70;15.80
13268;DHT22;6702;47.068;15.458;2023-02-01T13:10:58;22.40;16.30
13268;DHT22;6702;47.068;15.458;2023-02-01T13:14:07;23.40;16.20
13268;DHT22;6702;47.068;15.458;2023-02-01T13:17:19;25.00;15.80
13268;DHT22;6702;47.068;15.458;2023-02-01T13:20:29;26.40;14.80
13268;DHT22;6702;47.068;15.458;2023-02-01T13:23:36;28.30;13.80
13268;DHT22;6702;47.068;15.458;2023-02-01T13:26:40;29.10;13.10
13268;DHT22;6702;47.068;15.458;2023-02-01T13:29:50;29.30;13.30
13268;DHT22;6702;47.068;15.458;2023-02-01T13:33:13;29.50;12.70
13268;DHT22;6702;47.068;15.458;2023-02-01T13:36:48;28.40;12.50
13268;DHT22;6702;47.068;15.458;2023-02-01T13:40:05;27.90;13.90
13268;DHT22;6702;47.068;15.458;2023-02-01T13:43:14;28.10;13.70
13268;DHT22;6702;47.068;15.458;2023-02-01T13:46:19;27.60;14.40
13268;DHT22;6702;47.068;15.458;2023-02-01T13:49:26;27.70;14.00
13268;DHT22;6702;47.068;15.458;2023-02-01T13:52:37;26.50;14.50
13268;DHT22;6702;47.068;15.458;2023-02-01T13:55:43;25.40;15.80
13268;DHT22;6702;47.068;15.458;2023-02-01T13:58:48;26.10;16.10
13268;DHT22;6702;47.068;15.458;2023-02-01T14:01:53;27.40;15.00
13268;DHT22;6702;47.068;15.458;2023-02-01T14:04:57;26.40;15.50
13268;DHT22;6702;47.068;15.458;2023-02-01T14:08:10;25.90;15.80
13268;DHT22;6702;47.068;15.458;2023-02-01T14:11:33;24.80;16.80
13268;DHT22;6702;47.068;15.458;2023-02-01T14:14:40;22.70;17.90
13268;DHT22;6702;47.068;15.458;2023-02-01T14:17:43;22.30;19.10
13268;DHT22;6702;47.068;15.458;2023-02-01T14:20:48;22.00;19.20
13268;DHT22;6702;47.068;15.458;2023-02-01T14:23:58;20.90;20.60
13268;DHT22;6702;47.068;15.458;2023-02-01T14:27:16;20.00;21.30
13268;DHT22;6702;47.068;15.458;2023-02-01T14:30:23;19.20;22.20
13268;DHT22;6702;47.068;15.458;2023-02-01T14:33:27;18.20;23.00
13268;DHT22;6702;47.068;15.458;2023-02-01T14:36:44;17.00;24.70
13268;DHT22;6702;47.068;15.458;2023-02-01T14:39:54;16.00;26.00
13268;DHT22;6702;47.068;15.458;2023-02-01T14:42:57;15.10;26.80
13268;DHT22;6702;47.068;15.458;2023-02-01T14:46:00;14.60;27.90
13268;DHT22;6702;47.068;15.458;2023-02-01T14:49:05;14.00;28.40
13268;DHT22;6702;47.068;15.458;2023-02-01T14:52:17;13.70;29.20
13268;DHT22;6702;47.068;15.458;2023-02-01T14:55:29;13.20;29.50
13268;DHT22;6702;47.068;15.458;2023-02-01T14:58:39;12.90;30.00
13268;DHT22;6702;47.068;15.458;2023-02-01T15:01:50;12.60;30.30
13268;DHT22;6702;47.068;15.458;2023-02-01T15:04:55;12.40;30.80
13268;DHT22;6702;47.068;15.458;2023-02-01T15:08:05;12.20;30.60
13268;DHT22;6702;47.068;15.458;2023-02-01T15:11:15;11.90;30.80
13268;DHT22;6702;47.068;15.458;2023-02-01T15:14:18;11.80;30.80
13268;DHT22;6702;47.068;15.458;2023-02-01T15:17:23;11.70;31.10
13268;DHT22;6702;47.068;15.458;2023-02-01T15:20:28;11.70;31.00
13268;DHT22;6702;47.068;15.458;2023-02-01T15:23:33;11.70;31.10
13268;DHT22;6702;47.068;15.458;2023-02-01T15:26:36;11.70;31.10
13268;DHT22;6702;47.068;15.458;2023-02-01T15:29:40;11.60;31.40
13268;DHT22;6702;47.068;15.458;2023-02-01T15:32:43;11.50;31.70
13268;DHT22;6702;47.068;15.458;2023-02-01T15:35:48;11.50;32.00
13268;DHT22;6702;47.068;15.458;2023-02-01T15:39:14;11.40;32.30
13268;DHT22;6702;47.068;15.458;2023-02-01T15:42:21;11.30;32.00
13268;DHT22;6702;47.068;15.458;2023-02-01T15:45:26;11.20;32.90
13268;DHT22;6702;47.068;15.458;2023-02-01T15:48:34;11.20;33.30
13268;DHT22;6702;47.068;15.458;2023-02-01T15:51:43;11.10;33.30
13268;DHT22;6702;47.068;15.458;2023-02-01T15:54:51;11.00;33.20
13268;DHT22;6702;47.068;15.458;2023-02-01T15:57:56;10.90;33.60
13268;DHT22;6702;47.068;15.458;2023-02-01T16:01:01;10.80;33.70
13268;DHT22;6702;47.068;15.458;2023-02-01T16:04:16;10.70;33.90
13268;DHT22;6702;47.068;15.458;2023-02-01T16:07:26;10.60;34.40
13268;DHT22;6702;47.068;15.458;2023-02-01T16:10:32;10.50;34.40
13268;DHT22;6702;47.068;15.458;2023-02-01T16:13:40;10.40;34.80
13268;DHT22;6702;47.068;15.458;2023-02-01T16:16:44;10.30;35.10
13268;DHT22;6702;47.068;15.458;2023-02-01T16:19:47;10.30;34.80
13268;DHT22;6702;47.068;15.458;2023-02-01T16:22:50;10.10;34.90
13268;DHT22;6702;47.068;15.458;2023-02-01T16:25:55;10.10;35.20
13268;DHT22;6702;47.068;15.458;2023-02-01T16:28:59;10.00;35.10
13268;DHT22;6702;47.068;15.458;2023-02-01T16:32:05;9.90;35.90
13268;DHT22;6702;47.068;15.458;2023-02-01T16:35:14;9.90;36.10
13268;DHT22;6702;47.068;15.458;2023-02-01T16:38:23;9.80;36.40
13268;DHT22;6702;47.068;15.458;2023-02-01T16:41:29;9.70;36.20
13268;DHT22;6702;47.068;15.458;2023-02-01T16:44:33;9.60;36.70
13268;DHT22;6702;47.068;15.458;2023-02-01T16:47:38;9.50;37.00
13268;DHT22;6702;47.068;15.458;2023-02-01T16:50:46;9.40;37.30
13268;DHT22;6702;47.068;15.458;2023-02-01T16:53:51;9.40;37.30
13268;DHT22;6702;47.068;15.458;2023-02-01T16:56:57;9.40;37.30
13268;DHT22;6702;47.068;15.458;2023-02-01T17:00:02;9.50;37.40
13268;DHT22;6702;47.068;15.458;2023-02-01T17:03:19;9.50;37.40
13268;DHT22;6702;47.068;15.458;2023-02-01T17:06:25;9.50;37.40
13268;DHT22;6702;47.068;15.458;2023-02-01T17:09:29;9.50;37.40
13268;DHT22;6702;47.068;15.458;2023-02-01T17:12:35;9.40;37.30
13268;DHT22;6702;47.068;15.458;2023-02-01T17:15:39;9.30;37.60
13268;DHT22;6702;47.068;15.458;2023-02-01T17:18:50;9.30;38.00
13268;DHT22;6702;47.068;15.458;2023-02-01T17:21:57;9.30;38.40
13268;DHT22;6702;47.068;15.458;2023-02-01T17:25:01;9.30;38.50
13268;DHT22;6702;47.068;15.458;2023-02-01T17:28:08;9.30;38.50
13268;DHT22;6702;47.068;15.458;2023-02-01T17:31:14;9.30;38.80
13268;DHT22;6702;47.068;15.458;2023-02-01T17:34:18;9.20;38.90
13268;DHT22;6702;47.068;15.458;2023-02-01T17:37:26;9.20;38.90
13268;DHT22;6702;47.068;15.458;2023-02-01T17:40:32;9.20;39.20
13268;DHT22;6702;47.068;15.458;2023-02-01T17:43:39;9.10;39.40
13268;DHT22;6702;47.068;15.458;2023-02-01T17:46:43;9.00;39.80
13268;DHT22;6702;47.068;15.458;2023-02-01T17:49:47;8.90;40.10
13268;DHT22;6702;47.068;15.458;2023-02-01T17:52:59;8.90;40.20
13268;DHT22;6702;47.068;15.458;2023-02-01T17:56:04;8.90;40.20
13268;DHT22;6702;47.068;15.458;2023-02-01T17:59:09;8.80;40.40
13268;DHT22;6702;47.068;15.458;2023-02-01T18:02:23;8.80;40.40
13268;DHT22;6702;47.068;15.458;2023-02-01T18:05:31;8.70;40.80
13268;DHT22;6702;47.068;15.458;2023-02-01T18:08:38;8.70;40.90
13268;DHT22;6702;47.068;15.458;2023-02-01T18:11:42;8.60;41.00
13268;DHT22;6702;47.068;15.458;2023-02-01T18:14:48;8.60;41.20
13268;DHT22;6702;47.068;15.458;2023-02-01T18:17:53;8.50;41.20
13268;DHT22;6702;47.068;15.458;2023-02-01T18:20:59;8.50;41.60
13268;DHT22;6702;47.068;15.458;2023-02-01T18:24:04;8.40;41.60
13268;DHT22;6702;47.068;15.458;2023-02-01T18:27:09;8.40;42.20
13268;DHT22;6702;47.068;15.458;2023-02-01T18:30:15;8.40;42.40
13268;DHT22;6702;47.068;15.458;2023-02-01T18:33:23;8.30;42.40
13268;DHT22;6702;47.068;15.458;2023-02-01T18:36:27;8.30;42.40
13268;DHT22;6702;47.068;15.458;2023-02-01T18:39:32;8.20;42.40
13268;DHT22;6702;47.068;15.458;2023-02-01T18:42:39;8.20;42.80
13268;DHT22;6702;47.068;15.458;2023-02-01T18:45:48;8.30;43.20
13268;DHT22;6702;47.068;15.458;2023-02-01T18:49:02;8.20;42.80
13268;DHT22;6702;47.068;15.458;2023-02-01T18:52:08;8.20;43.10
13268;DHT22;6702;47.068;15.458;2023-02-01T18:55:19;8.20;43.20
13268;DHT22;6702;47.068;15.458;2023-02-01T18:58:24;8.10;43.30
13268;DHT22;6702;47.068;15.458;2023-02-01T19:01:32;8.10;43.60
13268;DHT22;6702;47.068;15.458;2023-02-01T19:04:39;8.10;43.90
13268;DHT22;6702;47.068;15.458;2023-02-01T19:07:44;8.10;43.90
13268;DHT22;6702;47.068;15.458;2023-02-01T19:10:50;8.00;44.00
13268;DHT22;6702;47.068;15.458;2023-02-01T19:13:54;7.90;44.40
13268;DHT22;6702;47.068;15.458;2023-02-01T19:17:00;8.00;46.90
13268;DHT22;6702;47.068;15.458;2023-02-01T19:20:06;8.00;47.00
13268;DHT22;6702;47.068;15.458;2023-02-01T19:23:12;8.00;45.60
13268;DHT22;6702;47.068;15.458;2023-02-01T19:26:17;8.00;45.10
13268;DHT22;6702;47.068;15.458;2023-02-01T19:29:22;7.90;45.30
13268;DHT22;6702;47.068;15.458;2023-02-01T19:32:28;8.00;45.60
13268;DHT22;6702;47.068;15.458;2023-02-01T19:35:33;7.80;45.70
13268;DHT22;6702;47.068;15.458;2023-02-01T19:38:37;7.70;46.00
13268;DHT22;6702;47.068;15.458;2023-02-01T19:41:43;7.60;46.30
13268;DHT22;6702;47.068;15.458;2023-02-01T19:44:48;7.60;46.80
13268;DHT22;6702;47.068;15.458;2023-02-01T19:47:54;7.50;47.10
13268;DHT22;6702;47.068;15.458;2023-02-01T19:50:59;7.50;47.50
13268;DHT22;6702;47.068;15.458;2023-02-01T19:54:06;7.50;47.70
13268;DHT22;6702;47.068;15.458;2023-02-01T19:57:11;7.40;48.10
13268;DHT22;6702;47.068;15.458;2023-02-01T20:00:16;7.40;48.70
13268;DHT22;6702;47.068;15.458;2023-02-01T20:03:26;7.40;48.90